sensor_id;sensor_type;location;lat;lon;timestamp;P1;durP1;ratioP1;P2;durP2;ratioP2
54157;SDS011;40065;49.894;10.358;2023-10-31T00:02:21;24.98;;;13.43;;
54157;SDS011;40065;49.894;10.358;2023-10-31T00:07:23;21.73;;;12.88;;
54157;SDS011;40065;49.894;10.358;2023-10-31T00:12:25;21.52;;;11.85;;
54157;SDS011;40065;49.894;10.358;2023-10-31T00:17:26;18.10;;;11.45;;
54157;SDS011;40065;49.894;10.358;2023-10-31T00:22:28;17.63;;;10.23;;
54157;SDS011;40065;49.894;10.358;2023-10-31T00:27:30;17.35;;;9.82;;
54157;SDS011;40065;49.894;10.358;2023-10-31T00:32:32;11.15;;;8.30;;
54157;SDS011;40065;49.894;10.358;2023-10-31T00:37:34;11.77;;;6.93;;
54157;SDS011;40065;49.894;10.358;2023-10-31T00:42:36;8.85;;;6.28;;
54157;SDS011;40065;49.894;10.358;2023-10-31T00:47:38;8.80;;;6.07;;
54157;SDS011;40065;49.894;10.358;2023-10-31T00:52:40;8.45;;;5.97;;
54157;SDS011;40065;49.894;10.358;2023-10-31T00:57:42;6.68;;;4.22;;
54157;SDS011;40065;49.894;10.358;2023-10-31T01:02:43;4.30;;;3.30;;
54157;SDS011;40065;49.894;10.358;2023-10-31T01:07:45;4.07;;;2.53;;
54157;SDS011;40065;49.894;10.358;2023-10-31T01:12:47;3.20;;;2.00;;
54157;SDS011;40065;49.894;10.358;2023-10-31T01:17:49;1.60;;;1.27;;
54157;SDS011;40065;49.894;10.358;2023-10-31T01:22:51;2.22;;;1.20;;
54157;SDS011;40065;49.894;10.358;2023-10-31T01:27:53;6.50;;;0.85;;
54157;SDS011;40065;49.894;10.358;2023-10-31T01:32:54;1.73;;;0.88;;
54157;SDS011;40065;49.894;10.358;2023-10-31T01:37:56;1.35;;;0.80;;
54157;SDS011;40065;49.894;10.358;2023-10-31T01:42:58;1.58;;;0.73;;
54157;SDS011;40065;49.894;10.358;2023-10-31T01:48:00;0.85;;;0.55;;
54157;SDS011;40065;49.894;10.358;2023-10-31T01:53:02;1.73;;;0.60;;
54157;SDS011;40065;49.894;10.358;2023-10-31T01:58:05;1.58;;;0.77;;
54157;SDS011;40065;49.894;10.358;2023-10-31T02:03:07;1.13;;;0.80;;
54157;SDS011;40065;49.894;10.358;2023-10-31T02:08:09;3.28;;;0.90;;
54157;SDS011;40065;49.894;10.358;2023-10-31T02:13:14;1.20;;;1.00;;
54157;SDS011;40065;49.894;10.358;2023-10-31T02:18:18;2.13;;;1.00;;
54157;SDS011;40065;49.894;10.358;2023-10-31T02:23:20;1.85;;;0.90;;
54157;SDS011;40065;49.894;10.358;2023-10-31T02:28:21;1.23;;;0.98;;
54157;SDS011;40065;49.894;10.358;2023-10-31T02:33:23;1.60;;;0.98;;
54157;SDS011;40065;49.894;10.358;2023-10-31T02:38:25;1.38;;;1.00;;
54157;SDS011;40065;49.894;10.358;2023-10-31T02:43:27;1.25;;;0.90;;
54157;SDS011;40065;49.894;10.358;2023-10-31T02:48:29;1.73;;;0.90;;
54157;SDS011;40065;49.894;10.358;2023-10-31T02:53:33;0.85;;;0.65;;
54157;SDS011;40065;49.894;10.358;2023-10-31T02:58:36;1.60;;;0.73;;
54157;SDS011;40065;49.894;10.358;2023-10-31T03:03:38;1.15;;;0.70;;
54157;SDS011;40065;49.894;10.358;2023-10-31T03:08:40;2.08;;;0.77;;
54157;SDS011;40065;49.894;10.358;2023-10-31T03:13:42;1.55;;;0.80;;
54157;SDS011;40065;49.894;10.358;2023-10-31T03:18:44;1.60;;;0.60;;
54157;SDS011;40065;49.894;10.358;2023-10-31T03:23:49;1.20;;;0.52;;
54157;SDS011;40065;49.894;10.358;2023-10-31T03:28:51;1.55;;;0.70;;
54157;SDS011;40065;49.894;10.358;2023-10-31T03:33:58;2.65;;;0.65;;
54157;SDS011;40065;49.894;10.358;2023-10-31T03:39:00;1.08;;;0.63;;
54157;SDS011;40065;49.894;10.358;2023-10-31T03:44:02;1.90;;;0.50;;
54157;SDS011;40065;49.894;10.358;2023-10-31T03:49:04;1.38;;;0.52;;
54157;SDS011;40065;49.894;10.358;2023-10-31T03:54:08;1.10;;;0.60;;
54157;SDS011;40065;49.894;10.358;2023-10-31T03:59:10;1.67;;;0.70;;
54157;SDS011;40065;49.894;10.358;2023-10-31T04:04:12;1.33;;;0.90;;
54157;SDS011;40065;49.894;10.358;2023-10-31T04:09:14;1.67;;;0.77;;
54157;SDS011;40065;49.894;10.358;2023-10-31T04:14:16;1.38;;;0.63;;
54157;SDS011;40065;49.894;10.358;2023-10-31T04:19:18;1.85;;;0.75;;
54157;SDS011;40065;49.894;10.358;2023-10-31T04:24:19;1.63;;;0.73;;
54157;SDS011;40065;49.894;10.358;2023-10-31T04:29:21;2.20;;;0.70;;
54157;SDS011;40065;49.894;10.358;2023-10-31T04:34:23;1.48;;;0.60;;
54157;SDS011;40065;49.894;10.358;2023-10-31T04:39:25;2.15;;;0.60;;
54157;SDS011;40065;49.894;10.358;2023-10-31T04:44:27;1.88;;;0.55;;
54157;SDS011;40065;49.894;10.358;2023-10-31T04:49:29;1.48;;;0.60;;
54157;SDS011;40065;49.894;10.358;2023-10-31T04:54:31;2.25;;;0.73;;
54157;SDS011;40065;49.894;10.358;2023-10-31T04:59:32;1.95;;;0.80;;
54157;SDS011;40065;49.894;10.358;2023-10-31T05:04:37;1.25;;;0.60;;
54157;SDS011;40065;49.894;10.358;2023-10-31T05:09:40;1.05;;;0.52;;
54157;SDS011;40065;49.894;10.358;2023-10-31T05:14:47;1.00;;;0.40;;
54157;SDS011;40065;49.894;10.358;2023-10-31T05:19:48;1.00;;;0.55;;
54157;SDS011;40065;49.894;10.358;2023-10-31T05:24:50;1.10;;;0.60;;
54157;SDS011;40065;49.894;10.358;2023-10-31T05:29:52;1.75;;;0.57;;
54157;SDS011;40065;49.894;10.358;2023-10-31T05:34:54;4.28;;;0.60;;
54157;SDS011;40065;49.894;10.358;2023-10-31T05:39:59;2.35;;;0.68;;
54157;SDS011;40065;49.894;10.358;2023-10-31T05:45:02;1.83;;;0.70;;
54157;SDS011;40065;49.894;10.358;2023-10-31T05:50:04;2.25;;;0.70;;
54157;SDS011;40065;49.894;10.358;2023-10-31T05:55:07;2.53;;;1.13;;
54157;SDS011;40065;49.894;10.358;2023-10-31T06:00:09;2.35;;;0.70;;
54157;SDS011;40065;49.894;10.358;2023-10-31T06:05:14;1.33;;;0.90;;
54157;SDS011;40065;49.894;10.358;2023-10-31T06:10:16;2.28;;;0.93;;
54157;SDS011;40065;49.894;10.358;2023-10-31T06:15:18;2.30;;;0.63;;
54157;SDS011;40065;49.894;10.358;2023-10-31T06:20:20;3.22;;;0.82;;
54157;SDS011;40065;49.894;10.358;2023-10-31T06:25:22;1.75;;;0.90;;
54157;SDS011;40065;49.894;10.358;2023-10-31T06:30:24;1.80;;;0.70;;
54157;SDS011;40065;49.894;10.358;2023-10-31T06:35:29;1.98;;;0.85;;
54157;SDS011;40065;49.894;10.358;2023-10-31T06:40:31;4.93;;;1.00;;
54157;SDS011;40065;49.894;10.358;2023-10-31T06:45:33;2.05;;;0.85;;
54157;SDS011;40065;49.894;10.358;2023-10-31T06:50:36;1.70;;;0.80;;
54157;SDS011;40065;49.894;10.358;2023-10-31T06:55:37;1.83;;;0.93;;
54157;SDS011;40065;49.894;10.358;2023-10-31T07:00:39;2.03;;;0.80;;
54157;SDS011;40065;49.894;10.358;2023-10-31T07:05:41;2.08;;;1.05;;
54157;SDS011;40065;49.894;10.358;2023-10-31T07:10:43;1.20;;;0.80;;
54157;SDS011;40065;49.894;10.358;2023-10-31T07:15:45;2.17;;;0.90;;
54157;SDS011;40065;49.894;10.358;2023-10-31T07:20:50;3.30;;;0.80;;
54157;SDS011;40065;49.894;10.358;2023-10-31T07:25:52;4.97;;;0.75;;
54157;SDS011;40065;49.894;10.358;2023-10-31T07:30:54;1.20;;;0.60;;
54157;SDS011;40065;49.894;10.358;2023-10-31T07:35:56;2.97;;;0.90;;
54157;SDS011;40065;49.894;10.358;2023-10-31T07:40:58;2.33;;;0.82;;
54157;SDS011;40065;49.894;10.358;2023-10-31T07:46:00;1.95;;;0.60;;
54157;SDS011;40065;49.894;10.358;2023-10-31T07:51:02;2.45;;;0.60;;
54157;SDS011;40065;49.894;10.358;2023-10-31T07:56:04;2.45;;;0.52;;
54157;SDS011;40065;49.894;10.358;2023-10-31T08:01:06;1.35;;;0.70;;
54157;SDS011;40065;49.894;10.358;2023-10-31T08:06:11;1.30;;;0.60;;
54157;SDS011;40065;49.894;10.358;2023-10-31T08:11:13;1.08;;;0.52;;
54157;SDS011;40065;49.894;10.358;2023-10-31T08:16:18;1.38;;;0.73;;
54157;SDS011;40065;49.894;10.358;2023-10-31T08:21:21;4.03;;;0.60;;
54157;SDS011;40065;49.894;10.358;2023-10-31T08:26:22;0.88;;;0.55;;
54157;SDS011;40065;49.894;10.358;2023-10-31T08:31:25;1.05;;;0.57;;
54157;SDS011;40065;49.894;10.358;2023-10-31T08:36:26;1.73;;;0.77;;
54157;SDS011;40065;49.894;10.358;2023-10-31T08:41:29;3.33;;;0.90;;
54157;SDS011;40065;49.894;10.358;2023-10-31T08:46:31;1.58;;;0.80;;
54157;SDS011;40065;49.894;10.358;2023-10-31T08:51:33;3.03;;;0.90;;
54157;SDS011;40065;49.894;10.358;2023-10-31T08:56:35;2.13;;;1.00;;
54157;SDS011;40065;49.894;10.358;2023-10-31T09:01:37;1.50;;;0.90;;
54157;SDS011;40065;49.894;10.358;2023-10-31T09:06:39;1.15;;;0.68;;
54157;SDS011;40065;49.894;10.358;2023-10-31T09:11:41;2.45;;;1.02;;
54157;SDS011;40065;49.894;10.358;2023-10-31T09:16:43;3.22;;;0.77;;
54157;SDS011;40065;49.894;10.358;2023-10-31T09:21:44;2.35;;;1.10;;
54157;SDS011;40065;49.894;10.358;2023-10-31T09:26:46;2.63;;;1.30;;
54157;SDS011;40065;49.894;10.358;2023-10-31T09:31:48;2.17;;;0.70;;
54157;SDS011;40065;49.894;10.358;2023-10-31T09:36:50;3.50;;;0.77;;
54157;SDS011;40065;49.894;10.358;2023-10-31T09:41:52;1.05;;;0.65;;
54157;SDS011;40065;49.894;10.358;2023-10-31T09:46:55;0.98;;;0.60;;
54157;SDS011;40065;49.894;10.358;2023-10-31T09:51:58;1.95;;;0.60;;
54157;SDS011;40065;49.894;10.358;2023-10-31T09:57:00;1.83;;;0.70;;
54157;SDS011;40065;49.894;10.358;2023-10-31T10:02:02;1.77;;;0.70;;
54157;SDS011;40065;49.894;10.358;2023-10-31T10:07:04;2.83;;;1.05;;
54157;SDS011;40065;49.894;10.358;2023-10-31T10:12:06;1.85;;;0.70;;
54157;SDS011;40065;49.894;10.358;2023-10-31T10:22:22;1.27;;;0.77;;
54157;SDS011;40065;49.894;10.358;2023-10-31T10:27:29;2.90;;;0.93;;
54157;SDS011;40065;49.894;10.358;2023-10-31T10:32:31;4.45;;;0.93;;
54157;SDS011;40065;49.894;10.358;2023-10-31T10:37:34;1.70;;;0.82;;
54157;SDS011;40065;49.894;10.358;2023-10-31T10:42:46;2.15;;;1.10;;
54157;SDS011;40065;49.894;10.358;2023-10-31T10:47:49;2.47;;;0.65;;
54157;SDS011;40065;49.894;10.358;2023-10-31T10:53:00;1.20;;;0.70;;
54157;SDS011;40065;49.894;10.358;2023-10-31T10:58:34;2.83;;;0.90;;
54157;SDS011;40065;49.894;10.358;2023-10-31T11:03:56;1.52;;;0.80;;
54157;SDS011;40065;49.894;10.358;2023-10-31T11:08:58;2.25;;;0.73;;
54157;SDS011;40065;49.894;10.358;2023-10-31T11:14:01;2.53;;;1.08;;
54157;SDS011;40065;49.894;10.358;2023-10-31T11:19:04;1.45;;;0.70;;
54157;SDS011;40065;49.894;10.358;2023-10-31T11:24:06;3.92;;;0.60;;
54157;SDS011;40065;49.894;10.358;2023-10-31T11:29:09;1.77;;;0.60;;
54157;SDS011;40065;49.894;10.358;2023-10-31T11:34:12;2.92;;;0.60;;
54157;SDS011;40065;49.894;10.358;2023-10-31T11:39:20;3.53;;;0.80;;
54157;SDS011;40065;49.894;10.358;2023-10-31T11:44:27;1.65;;;0.75;;
54157;SDS011;40065;49.894;10.358;2023-10-31T11:49:45;1.98;;;0.95;;
54157;SDS011;40065;49.894;10.358;2023-10-31T11:54:48;1.67;;;0.70;;
54157;SDS011;40065;49.894;10.358;2023-10-31T11:59:50;1.73;;;0.85;;
54157;SDS011;40065;49.894;10.358;2023-10-31T12:05:05;2.00;;;0.70;;
54157;SDS011;40065;49.894;10.358;2023-10-31T12:10:11;1.55;;;0.70;;
54157;SDS011;40065;49.894;10.358;2023-10-31T12:15:13;1.58;;;0.50;;
54157;SDS011;40065;49.894;10.358;2023-10-31T12:20:15;3.33;;;0.50;;
54157;SDS011;40065;49.894;10.358;2023-10-31T12:25:18;4.20;;;1.13;;
54157;SDS011;40065;49.894;10.358;2023-10-31T12:30:20;2.15;;;0.90;;
54157;SDS011;40065;49.894;10.358;2023-10-31T12:35:23;1.10;;;0.70;;
54157;SDS011;40065;49.894;10.358;2023-10-31T12:45:29;2.65;;;0.70;;
54157;SDS011;40065;49.894;10.358;2023-10-31T12:50:31;2.20;;;0.70;;
54157;SDS011;40065;49.894;10.358;2023-10-31T12:55:40;1.70;;;0.90;;
54157;SDS011;40065;49.894;10.358;2023-10-31T13:00:43;2.95;;;1.00;;
54157;SDS011;40065;49.894;10.358;2023-10-31T13:05:47;4.13;;;1.20;;
54157;SDS011;40065;49.894;10.358;2023-10-31T13:10:49;3.58;;;0.90;;
54157;SDS011;40065;49.894;10.358;2023-10-31T13:15:51;3.55;;;1.10;;
54157;SDS011;40065;49.894;10.358;2023-10-31T13:20:53;2.50;;;0.77;;
54157;SDS011;40065;49.894;10.358;2023-10-31T13:25:55;3.70;;;0.80;;
54157;SDS011;40065;49.894;10.358;2023-10-31T13:30:57;1.35;;;0.60;;
54157;SDS011;40065;49.894;10.358;2023-10-31T13:35:59;3.88;;;0.80;;
54157;SDS011;40065;49.894;10.358;2023-10-31T13:41:01;2.55;;;0.70;;
54157;SDS011;40065;49.894;10.358;2023-10-31T13:46:03;4.32;;;0.80;;
54157;SDS011;40065;49.894;10.358;2023-10-31T13:51:06;2.25;;;0.90;;
54157;SDS011;40065;49.894;10.358;2023-10-31T13:56:08;2.30;;;0.82;;
54157;SDS011;40065;49.894;10.358;2023-10-31T14:01:09;2.67;;;0.63;;
54157;SDS011;40065;49.894;10.358;2023-10-31T14:06:11;3.70;;;1.27;;
54157;SDS011;40065;49.894;10.358;2023-10-31T14:11:14;5.57;;;0.93;;
54157;SDS011;40065;49.894;10.358;2023-10-31T14:16:16;3.55;;;0.60;;
54157;SDS011;40065;49.894;10.358;2023-10-31T14:21:18;4.10;;;0.70;;
54157;SDS011;40065;49.894;10.358;2023-10-31T14:26:20;3.08;;;1.08;;
54157;SDS011;40065;49.894;10.358;2023-10-31T14:31:22;5.03;;;0.93;;
54157;SDS011;40065;49.894;10.358;2023-10-31T14:36:24;1.63;;;0.70;;
54157;SDS011;40065;49.894;10.358;2023-10-31T14:41:26;1.95;;;0.70;;
54157;SDS011;40065;49.894;10.358;2023-10-31T14:46:28;2.75;;;1.40;;
54157;SDS011;40065;49.894;10.358;2023-10-31T14:51:31;4.25;;;0.80;;
54157;SDS011;40065;49.894;10.358;2023-10-31T14:56:33;2.83;;;0.80;;
54157;SDS011;40065;49.894;10.358;2023-10-31T15:01:36;4.27;;;1.20;;
54157;SDS011;40065;49.894;10.358;2023-10-31T15:06:38;5.03;;;1.23;;
54157;SDS011;40065;49.894;10.358;2023-10-31T15:11:40;6.70;;;1.80;;
54157;SDS011;40065;49.894;10.358;2023-10-31T15:16:42;5.22;;;2.17;;
54157;SDS011;40065;49.894;10.358;2023-10-31T15:21:43;5.00;;;1.90;;
54157;SDS011;40065;49.894;10.358;2023-10-31T15:26:45;4.72;;;1.20;;
54157;SDS011;40065;49.894;10.358;2023-10-31T15:31:47;4.57;;;1.10;;
54157;SDS011;40065;49.894;10.358;2023-10-31T15:36:55;2.25;;;0.82;;
54157;SDS011;40065;49.894;10.358;2023-10-31T15:41:57;2.33;;;0.80;;
54157;SDS011;40065;49.894;10.358;2023-10-31T15:46:59;5.78;;;1.80;;
54157;SDS011;40065;49.894;10.358;2023-10-31T15:52:01;7.90;;;3.38;;
54157;SDS011;40065;49.894;10.358;2023-10-31T15:57:03;7.68;;;4.13;;
54157;SDS011;40065;49.894;10.358;2023-10-31T16:02:05;12.23;;;5.25;;
54157;SDS011;40065;49.894;10.358;2023-10-31T16:07:07;8.73;;;2.30;;
54157;SDS011;40065;49.894;10.358;2023-10-31T16:12:11;4.35;;;2.03;;
54157;SDS011;40065;49.894;10.358;2023-10-31T16:17:13;3.03;;;1.73;;
54157;SDS011;40065;49.894;10.358;2023-10-31T16:22:15;7.72;;;1.33;;
54157;SDS011;40065;49.894;10.358;2023-10-31T16:27:17;5.15;;;1.50;;
54157;SDS011;40065;49.894;10.358;2023-10-31T16:32:20;3.55;;;1.60;;
54157;SDS011;40065;49.894;10.358;2023-10-31T16:37:22;5.25;;;1.35;;
54157;SDS011;40065;49.894;10.358;2023-10-31T16:42:24;9.88;;;3.20;;
54157;SDS011;40065;49.894;10.358;2023-10-31T16:47:33;5.22;;;2.00;;
54157;SDS011;40065;49.894;10.358;2023-10-31T16:52:35;6.38;;;2.63;;
54157;SDS011;40065;49.894;10.358;2023-10-31T16:57:37;5.78;;;1.58;;
54157;SDS011;40065;49.894;10.358;2023-10-31T17:02:39;6.03;;;2.05;;
54157;SDS011;40065;49.894;10.358;2023-10-31T17:07:41;4.80;;;1.60;;
54157;SDS011;40065;49.894;10.358;2023-10-31T17:12:43;4.95;;;1.67;;
54157;SDS011;40065;49.894;10.358;2023-10-31T17:17:44;4.03;;;1.63;;
54157;SDS011;40065;49.894;10.358;2023-10-31T17:22:46;4.45;;;1.73;;
54157;SDS011;40065;49.894;10.358;2023-10-31T17:27:49;7.75;;;2.90;;
54157;SDS011;40065;49.894;10.358;2023-10-31T17:32:51;10.45;;;2.40;;
54157;SDS011;40065;49.894;10.358;2023-10-31T17:37:54;7.25;;;2.45;;
54157;SDS011;40065;49.894;10.358;2023-10-31T17:42:56;7.70;;;2.38;;
54157;SDS011;40065;49.894;10.358;2023-10-31T17:47:58;8.43;;;2.38;;
54157;SDS011;40065;49.894;10.358;2023-10-31T17:53:00;5.15;;;2.20;;
54157;SDS011;40065;49.894;10.358;2023-10-31T17:58:02;5.43;;;2.05;;
54157;SDS011;40065;49.894;10.358;2023-10-31T18:03:04;4.70;;;2.70;;
54157;SDS011;40065;49.894;10.358;2023-10-31T18:08:06;4.43;;;2.28;;
54157;SDS011;40065;49.894;10.358;2023-10-31T18:13:09;6.85;;;2.53;;
54157;SDS011;40065;49.894;10.358;2023-10-31T18:18:11;5.82;;;2.53;;
54157;SDS011;40065;49.894;10.358;2023-10-31T18:23:13;7.97;;;2.85;;
54157;SDS011;40065;49.894;10.358;2023-10-31T18:28:15;5.60;;;3.08;;
54157;SDS011;40065;49.894;10.358;2023-10-31T18:33:17;9.38;;;2.78;;
54157;SDS011;40065;49.894;10.358;2023-10-31T18:38:19;5.72;;;2.45;;
54157;SDS011;40065;49.894;10.358;2023-10-31T18:43:21;8.68;;;2.45;;
54157;SDS011;40065;49.894;10.358;2023-10-31T18:48:23;6.05;;;1.95;;
54157;SDS011;40065;49.894;10.358;2023-10-31T18:53:25;2.92;;;1.90;;
54157;SDS011;40065;49.894;10.358;2023-10-31T18:58:27;5.03;;;2.03;;
54157;SDS011;40065;49.894;10.358;2023-10-31T19:03:29;6.10;;;2.28;;
54157;SDS011;40065;49.894;10.358;2023-10-31T19:08:31;5.57;;;2.00;;
54157;SDS011;40065;49.894;10.358;2023-10-31T19:13:34;4.82;;;2.10;;
54157;SDS011;40065;49.894;10.358;2023-10-31T19:18:37;3.15;;;2.00;;
54157;SDS011;40065;49.894;10.358;2023-10-31T19:23:38;5.90;;;1.85;;
54157;SDS011;40065;49.894;10.358;2023-10-31T19:28:40;5.10;;;1.50;;
54157;SDS011;40065;49.894;10.358;2023-10-31T19:33:42;5.00;;;1.95;;
54157;SDS011;40065;49.894;10.358;2023-10-31T19:38:44;5.18;;;1.80;;
54157;SDS011;40065;49.894;10.358;2023-10-31T19:43:46;7.53;;;2.90;;
54157;SDS011;40065;49.894;10.358;2023-10-31T19:48:48;3.70;;;1.88;;
54157;SDS011;40065;49.894;10.358;2023-10-31T19:53:50;3.65;;;1.80;;
54157;SDS011;40065;49.894;10.358;2023-10-31T19:58:53;2.67;;;1.27;;
54157;SDS011;40065;49.894;10.358;2023-10-31T20:03:55;2.00;;;1.20;;
54157;SDS011;40065;49.894;10.358;2023-10-31T20:08:56;2.65;;;1.25;;
54157;SDS011;40065;49.894;10.358;2023-10-31T20:13:58;6.57;;;1.60;;
54157;SDS011;40065;49.894;10.358;2023-10-31T20:19:00;3.70;;;1.55;;
54157;SDS011;40065;49.894;10.358;2023-10-31T20:24:02;2.38;;;1.50;;
54157;SDS011;40065;49.894;10.358;2023-10-31T20:29:04;4.22;;;1.27;;
54157;SDS011;40065;49.894;10.358;2023-10-31T20:34:07;2.45;;;1.23;;
54157;SDS011;40065;49.894;10.358;2023-10-31T20:39:09;3.92;;;1.75;;
54157;SDS011;40065;49.894;10.358;2023-10-31T20:44:12;3.63;;;2.50;;
54157;SDS011;40065;49.894;10.358;2023-10-31T20:49:14;4.35;;;1.70;;
54157;SDS011;40065;49.894;10.358;2023-10-31T20:54:16;3.75;;;2.08;;
54157;SDS011;40065;49.894;10.358;2023-10-31T20:59:18;5.57;;;2.55;;
54157;SDS011;40065;49.894;10.358;2023-10-31T21:04:20;5.53;;;2.30;;
54157;SDS011;40065;49.894;10.358;2023-10-31T21:09:23;6.68;;;2.40;;
54157;SDS011;40065;49.894;10.358;2023-10-31T21:14:25;3.92;;;2.17;;
54157;SDS011;40065;49.894;10.358;2023-10-31T21:19:27;6.07;;;2.70;;
54157;SDS011;40065;49.894;10.358;2023-10-31T21:24:36;4.53;;;2.25;;
54157;SDS011;40065;49.894;10.358;2023-10-31T21:29:38;3.08;;;2.00;;
54157;SDS011;40065;49.894;10.358;2023-10-31T21:34:40;3.67;;;2.30;;
54157;SDS011;40065;49.894;10.358;2023-10-31T21:39:42;5.05;;;2.47;;
54157;SDS011;40065;49.894;10.358;2023-10-31T21:44:44;4.22;;;2.30;;
54157;SDS011;40065;49.894;10.358;2023-10-31T21:49:46;4.18;;;2.72;;
54157;SDS011;40065;49.894;10.358;2023-10-31T21:54:47;5.95;;;2.70;;
54157;SDS011;40065;49.894;10.358;2023-10-31T21:59:49;6.80;;;2.67;;
54157;SDS011;40065;49.894;10.358;2023-10-31T22:04:51;4.45;;;2.40;;
54157;SDS011;40065;49.894;10.358;2023-10-31T22:09:53;4.10;;;2.30;;
54157;SDS011;40065;49.894;10.358;2023-10-31T22:14:55;6.13;;;2.25;;
54157;SDS011;40065;49.894;10.358;2023-10-31T22:19:57;6.35;;;2.63;;
54157;SDS011;40065;49.894;10.358;2023-10-31T22:25:01;4.70;;;2.70;;
54157;SDS011;40065;49.894;10.358;2023-10-31T22:30:04;6.20;;;2.67;;
54157;SDS011;40065;49.894;10.358;2023-10-31T22:35:08;4.18;;;2.25;;
54157;SDS011;40065;49.894;10.358;2023-10-31T22:40:10;3.85;;;2.70;;
54157;SDS011;40065;49.894;10.358;2023-10-31T22:45:12;4.10;;;2.80;;
54157;SDS011;40065;49.894;10.358;2023-10-31T22:50:14;4.95;;;3.13;;
54157;SDS011;40065;49.894;10.358;2023-10-31T22:55:16;5.45;;;3.10;;
54157;SDS011;40065;49.894;10.358;2023-10-31T23:00:18;4.72;;;3.05;;
54157;SDS011;40065;49.894;10.358;2023-10-31T23:05:28;6.63;;;3.30;;
54157;SDS011;40065;49.894;10.358;2023-10-31T23:10:33;4.55;;;3.50;;
54157;SDS011;40065;49.894;10.358;2023-10-31T23:15:35;5.93;;;3.53;;
54157;SDS011;40065;49.894;10.358;2023-10-31T23:20:37;9.60;;;4.22;;
54157;SDS011;40065;49.894;10.358;2023-10-31T23:25:39;7.93;;;4.68;;
54157;SDS011;40065;49.894;10.358;2023-10-31T23:30:43;6.97;;;4.45;;
54157;SDS011;40065;49.894;10.358;2023-10-31T23:35:58;5.60;;;4.93;;
54157;SDS011;40065;49.894;10.358;2023-10-31T23:41:00;8.05;;;5.10;;
54157;SDS011;40065;49.894;10.358;2023-10-31T23:46:02;8.48;;;4.72;;
54157;SDS011;40065;49.894;10.358;2023-10-31T23:51:05;7.45;;;4.10;;
54157;SDS011;40065;49.894;10.358;2023-10-31T23:56:07;6.78;;;3.63;;
